createdAt,value
2023-02-26T00:01:32.742Z,2.15
2023-02-26T00:04:02.193Z,1.73
2023-02-26T00:06:31.900Z,1.60
2023-02-26T00:08:58.680Z,1.98
2023-02-26T00:11:25.816Z,1.23
2023-02-26T00:13:52.727Z,1.20
2023-02-26T00:16:36.119Z,2.28
2023-02-26T00:19:05.394Z,1.73
2023-02-26T00:21:32.886Z,1.35
2023-02-26T00:24:04.923Z,1.70
2023-02-26T00:26:35.470Z,1.35
2023-02-26T00:29:03.709Z,1.52
2023-02-26T00:31:30.899Z,1.00
2023-02-26T00:33:58.487Z,1.73
2023-02-26T00:36:29.931Z,1.38
2023-02-26T00:39:05.473Z,0.90
2023-02-26T00:41:32.296Z,1.92
2023-02-26T00:43:59.409Z,1.58
2023-02-26T00:46:34.644Z,1.38
2023-02-26T00:49:11.049Z,2.25
2023-02-26T00:51:40.232Z,1.83
2023-02-26T00:54:12.269Z,1.40
2023-02-26T00:56:42.123Z,1.55
2023-02-26T00:59:11.292Z,1.67
2023-02-26T01:01:38.115Z,1.85
2023-02-26T01:04:05.649Z,2.40
2023-02-26T01:06:39.229Z,2.00
2023-02-26T01:09:31.334Z,1.90
2023-02-26T01:14:29.608Z,2.00
2023-02-26T01:17:20.974Z,1.10
2023-02-26T01:20:00.583Z,1.90
2023-02-26T01:22:32.940Z,1.10
2023-02-26T01:25:07.399Z,2.10
2023-02-26T01:27:34.660Z,1.83
2023-02-26T01:30:01.513Z,1.48
2023-02-26T01:32:55.258Z,2.05
2023-02-26T01:35:36.123Z,3.35
2023-02-26T01:38:11.557Z,2.05
2023-02-26T01:40:54.804Z,3.20
2023-02-26T01:43:30.795Z,2.75
2023-02-26T01:46:05.633Z,2.80
2023-02-26T01:48:48.887Z,1.20
2023-02-26T01:51:15.556Z,2.78
2023-02-26T01:53:42.051Z,1.83
2023-02-26T01:56:19.532Z,1.58
2023-02-26T01:58:48.277Z,2.63
2023-02-26T02:01:17.507Z,2.38
2023-02-26T02:03:44.076Z,1.98
2023-02-26T02:06:29.682Z,2.40
2023-02-26T02:08:57.011Z,2.63
2023-02-26T02:11:23.950Z,2.38
2023-02-26T02:13:53.321Z,2.83
2023-02-26T02:16:26.070Z,3.03
2023-02-26T02:19:04.546Z,2.42
2023-02-26T02:22:03.240Z,1.70
2023-02-26T02:24:46.944Z,2.67
2023-02-26T02:27:23.144Z,2.72
2023-02-26T02:30:40.842Z,2.67
2023-02-26T02:33:18.340Z,1.33
2023-02-26T02:35:54.460Z,2.30
2023-02-26T02:38:26.662Z,3.25
2023-02-26T02:41:04.036Z,2.67
2023-02-26T02:43:34.257Z,3.08
2023-02-26T02:46:19.552Z,2.55
2023-02-26T02:48:59.540Z,2.72
2023-02-26T02:51:57.693Z,2.20
2023-02-26T02:54:30.082Z,3.00
2023-02-26T02:57:03.646Z,1.60
2023-02-26T02:59:46.776Z,2.60
2023-02-26T03:02:36.509Z,3.03
2023-02-26T03:05:03.234Z,2.90
2023-02-26T03:07:35.266Z,2.88
2023-02-26T03:10:07.495Z,1.58
2023-02-26T03:12:34.210Z,2.50
2023-02-26T03:15:02.040Z,1.33
2023-02-26T03:17:42.367Z,2.40
2023-02-26T03:20:33.963Z,1.52
2023-02-26T03:23:32.080Z,1.90
2023-02-26T03:26:06.106Z,1.65
2023-02-26T03:28:42.713Z,1.08
2023-02-26T03:31:11.926Z,1.00
2023-02-26T03:34:00.109Z,1.63
2023-02-26T03:36:36.414Z,2.08
2023-02-26T03:39:06.903Z,1.20
2023-02-26T03:41:40.000Z,1.58
2023-02-26T03:44:19.591Z,1.33
2023-02-26T03:46:51.364Z,1.67
2023-02-26T03:51:48.040Z,1.60
2023-02-26T03:54:21.938Z,1.27
2023-02-26T03:56:49.231Z,1.42
2023-02-26T03:59:17.282Z,1.60
2023-02-26T04:02:11.697Z,1.20
2023-02-26T04:04:52.875Z,1.60
2023-02-26T04:07:21.069Z,1.95
2023-02-26T04:09:50.360Z,1.23
2023-02-26T04:12:24.649Z,1.92
2023-02-26T04:14:51.369Z,1.58
2023-02-26T04:17:18.866Z,1.20
2023-02-26T04:19:45.414Z,0.80
2023-02-26T04:22:12.461Z,1.40
2023-02-26T04:24:39.271Z,1.55
2023-02-26T04:27:06.094Z,1.40
2023-02-26T04:29:32.612Z,1.08
2023-02-26T04:31:59.499Z,1.75
2023-02-26T04:34:26.368Z,2.05
2023-02-26T04:36:52.959Z,1.02
2023-02-26T04:39:19.502Z,1.77
2023-02-26T04:41:46.044Z,2.03
2023-02-26T04:44:12.539Z,1.73
2023-02-26T04:46:39.193Z,1.77
2023-02-26T04:49:05.715Z,1.92
2023-02-26T04:51:32.219Z,1.50
2023-02-26T04:53:58.694Z,2.17
2023-02-26T04:56:26.691Z,2.03
2023-02-26T04:58:53.342Z,2.10
2023-02-26T05:01:19.891Z,1.83
2023-02-26T05:03:46.421Z,1.40
2023-02-26T05:06:12.878Z,1.80
2023-02-26T05:08:42.280Z,1.77
2023-02-26T05:11:12.426Z,1.00
2023-02-26T05:13:39.463Z,1.90
2023-02-26T05:16:07.166Z,2.00
2023-02-26T05:18:33.791Z,1.50
2023-02-26T05:21:00.852Z,2.50
2023-02-26T05:23:27.390Z,1.85
2023-02-26T05:25:58.430Z,1.85
2023-02-26T05:28:26.214Z,1.83
2023-02-26T05:30:52.828Z,1.98
2023-02-26T05:33:19.520Z,2.10
2023-02-26T05:35:46.834Z,2.20
2023-02-26T05:38:13.327Z,1.80
2023-02-26T05:40:39.776Z,1.33
2023-02-26T05:43:06.308Z,2.20
2023-02-26T05:45:32.841Z,1.20
2023-02-26T05:47:59.519Z,0.95
2023-02-26T05:50:26.817Z,1.70
2023-02-26T05:52:53.650Z,1.70
2023-02-26T05:55:20.300Z,1.30
2023-02-26T05:57:46.766Z,1.60
2023-02-26T06:00:14.478Z,1.83
2023-02-26T06:02:41.479Z,1.48
2023-02-26T06:05:08.814Z,2.08
2023-02-26T06:07:38.153Z,1.58
2023-02-26T06:10:08.596Z,1.40
2023-02-26T06:12:35.749Z,1.15
2023-02-26T06:15:02.478Z,1.77
2023-02-26T06:17:29.204Z,1.10
2023-02-26T06:19:55.707Z,1.60
2023-02-26T06:22:22.212Z,1.00
2023-02-26T06:24:48.688Z,1.80
2023-02-26T06:27:15.205Z,1.27
2023-02-26T06:29:41.654Z,1.33
2023-02-26T06:32:08.297Z,1.58
2023-02-26T06:34:34.879Z,1.00
2023-02-26T06:37:01.533Z,1.08
2023-02-26T06:39:27.968Z,1.50
2023-02-26T06:41:54.452Z,1.35
2023-02-26T06:44:20.889Z,1.00
2023-02-26T06:46:47.337Z,0.95
2023-02-26T06:49:13.867Z,1.00
2023-02-26T06:51:40.713Z,0.98
2023-02-26T06:54:07.532Z,1.02
2023-02-26T06:56:33.989Z,0.73
2023-02-26T06:59:01.377Z,1.75
2023-02-26T07:01:27.999Z,1.17
2023-02-26T07:03:54.667Z,0.95
2023-02-26T07:06:27.650Z,1.00
2023-02-26T07:08:55.610Z,1.48
2023-02-26T07:11:22.512Z,1.70
2023-02-26T07:13:49.306Z,1.42
2023-02-26T07:16:15.789Z,1.55
2023-02-26T07:18:42.303Z,1.70
2023-02-26T07:21:08.770Z,2.10
2023-02-26T07:23:35.320Z,1.88
2023-02-26T07:26:02.350Z,2.08
2023-02-26T07:28:29.326Z,1.90
2023-02-26T07:30:56.964Z,1.92
2023-02-26T07:33:24.997Z,2.00
2023-02-26T07:35:51.633Z,1.67
2023-02-26T07:38:19.624Z,1.75
2023-02-26T07:40:46.841Z,1.60
2023-02-26T07:43:13.389Z,2.03
2023-02-26T07:45:39.894Z,2.10
2023-02-26T07:48:06.350Z,1.80
2023-02-26T07:50:33.632Z,1.90
2023-02-26T07:53:00.305Z,2.28
2023-02-26T07:55:27.725Z,1.83
2023-02-26T07:57:54.339Z,1.70
2023-02-26T08:00:21.141Z,2.17
2023-02-26T08:02:47.875Z,1.77
2023-02-26T08:05:14.506Z,1.70
2023-02-26T08:07:40.981Z,1.58
2023-02-26T08:10:08.079Z,1.85
2023-02-26T08:12:34.656Z,1.65
2023-02-26T08:15:01.102Z,2.22
2023-02-26T08:17:31.112Z,1.63
2023-02-26T08:19:57.731Z,1.90
2023-02-26T08:22:24.159Z,1.95
2023-02-26T08:24:50.881Z,1.63
2023-02-26T08:27:17.432Z,1.70
2023-02-26T08:29:46.242Z,1.70
2023-02-26T08:32:13.567Z,1.70
2023-02-26T08:34:40.188Z,1.92
2023-02-26T08:37:14.276Z,1.20
2023-02-26T08:39:41.330Z,1.77
2023-02-26T08:42:09.320Z,2.03
2023-02-26T08:44:36.139Z,2.20
2023-02-26T08:47:03.715Z,1.63
2023-02-26T08:49:30.273Z,2.05
2023-02-26T08:51:56.734Z,1.50
2023-02-26T08:54:23.422Z,1.40
2023-02-26T08:56:49.920Z,1.73
2023-02-26T08:59:16.503Z,1.35
2023-02-26T09:01:42.997Z,1.08
2023-02-26T09:04:09.543Z,1.17
2023-02-26T09:06:36.556Z,1.33
2023-02-26T09:09:04.019Z,0.90
2023-02-26T09:11:32.486Z,1.80
2023-02-26T09:13:59.527Z,1.10
2023-02-26T09:16:26.771Z,0.70
2023-02-26T09:18:53.642Z,0.90
2023-02-26T09:21:20.182Z,1.40
2023-02-26T09:23:46.624Z,1.05
2023-02-26T09:26:13.146Z,1.10
2023-02-26T09:28:39.715Z,1.50
2023-02-26T09:31:07.316Z,1.05
2023-02-26T09:33:34.304Z,0.90
2023-02-26T09:36:00.973Z,0.80
2023-02-26T09:38:27.485Z,0.68
2023-02-26T09:41:16.396Z,1.00
2023-02-26T09:44:15.312Z,1.30
2023-02-26T09:47:18.877Z,1.13
2023-02-26T09:50:07.194Z,0.63
2023-02-26T09:52:45.143Z,1.20
2023-02-26T09:55:21.910Z,1.40
2023-02-26T09:57:52.305Z,0.80
2023-02-26T10:00:39.501Z,0.75
2023-02-26T10:03:23.992Z,0.88
2023-02-26T10:06:19.546Z,0.85
2023-02-26T10:08:55.101Z,0.73
2023-02-26T10:11:36.291Z,0.98
2023-02-26T10:14:11.404Z,1.10
2023-02-26T10:16:42.950Z,1.13
2023-02-26T10:19:19.713Z,1.58
2023-02-26T10:21:54.262Z,1.15
2023-02-26T10:24:40.713Z,1.58
2023-02-26T10:27:16.103Z,1.70
2023-02-26T10:29:58.789Z,1.55
2023-02-26T10:32:50.555Z,0.80
2023-02-26T10:35:18.798Z,0.90
2023-02-26T10:37:55.668Z,0.60
2023-02-26T10:40:50.466Z,1.00
2023-02-26T10:43:30.446Z,1.30
2023-02-26T10:45:57.416Z,0.95
2023-02-26T10:48:26.835Z,0.75
2023-02-26T10:50:59.497Z,0.98
2023-02-26T10:53:27.836Z,1.30
2023-02-26T10:56:04.295Z,1.13
2023-02-26T10:58:30.770Z,1.40
2023-02-26T11:00:57.863Z,1.60
2023-02-26T11:03:38.686Z,1.40
2023-02-26T11:06:06.751Z,0.88
2023-02-26T11:08:45.268Z,0.90
2023-02-26T11:11:35.928Z,1.15
2023-02-26T11:14:02.436Z,1.27
2023-02-26T11:16:29.083Z,1.23
2023-02-26T11:18:58.543Z,1.40
2023-02-26T11:21:39.740Z,1.40
2023-02-26T11:24:16.722Z,1.30
2023-02-26T11:26:48.724Z,1.30
2023-02-26T11:29:20.436Z,1.30
2023-02-26T11:31:58.101Z,1.27
2023-02-26T11:34:29.063Z,1.00
2023-02-26T11:36:58.506Z,1.00
2023-02-26T11:39:32.874Z,0.95
2023-02-26T11:42:01.655Z,1.10
2023-02-26T11:44:45.506Z,0.80
2023-02-26T11:47:17.538Z,0.90
2023-02-26T11:49:52.441Z,0.90
2023-02-26T11:53:04.107Z,0.70
2023-02-26T11:55:44.472Z,1.00
2023-02-26T11:58:20.444Z,1.10
2023-02-26T12:00:47.374Z,1.10
2023-02-26T12:03:23.688Z,1.00
2023-02-26T12:05:56.069Z,0.93
2023-02-26T12:08:30.665Z,1.30
2023-02-26T12:11:27.945Z,0.90
2023-02-26T12:14:14.071Z,0.93
2023-02-26T12:16:58.855Z,1.10
2023-02-26T12:19:37.166Z,1.10
2023-02-26T12:22:26.770Z,1.45
2023-02-26T12:25:05.290Z,0.77
2023-02-26T12:27:40.802Z,1.25
2023-02-26T12:30:22.246Z,1.10
2023-02-26T12:33:22.498Z,1.30
2023-02-26T12:36:05.166Z,1.00
2023-02-26T12:38:37.576Z,0.80
2023-02-26T12:41:22.879Z,1.15
2023-02-26T12:43:55.428Z,1.13
2023-02-26T12:46:37.368Z,1.10
2023-02-26T12:52:25.295Z,0.73
2023-02-26T12:55:10.610Z,1.00
2023-02-26T12:57:52.151Z,0.95
2023-02-26T13:00:43.117Z,0.80
2023-02-26T13:03:50.537Z,1.08
2023-02-26T13:06:54.904Z,0.85
2023-02-26T13:10:12.355Z,0.82
2023-02-26T13:12:41.556Z,0.88
2023-02-26T13:15:18.825Z,1.02
2023-02-26T13:18:00.540Z,0.93
2023-02-26T13:20:28.927Z,0.80
2023-02-26T13:22:58.504Z,0.85
2023-02-26T13:25:48.623Z,0.70
2023-02-26T13:28:39.234Z,0.70
2023-02-26T13:31:38.729Z,0.93
2023-02-26T13:34:19.086Z,0.85
2023-02-26T13:36:46.736Z,0.70
2023-02-26T13:39:30.200Z,0.90
2023-02-26T13:42:19.548Z,1.10
2023-02-26T13:44:59.959Z,1.13
2023-02-26T13:47:51.192Z,1.17
2023-02-26T13:50:23.772Z,1.17
2023-02-26T13:53:03.470Z,1.20
2023-02-26T13:55:47.977Z,1.20
2023-02-26T13:58:23.428Z,0.73
2023-02-26T14:01:19.035Z,1.00
2023-02-26T14:04:22.461Z,1.15
2023-02-26T14:07:00.969Z,0.70
2023-02-26T14:09:37.530Z,1.08
2023-02-26T14:12:13.496Z,1.02
2023-02-26T14:15:00.162Z,0.90
2023-02-26T14:17:31.780Z,1.33
2023-02-26T14:20:24.062Z,1.20
2023-02-26T14:22:59.195Z,1.10
2023-02-26T14:25:34.911Z,1.10
2023-02-26T14:28:33.480Z,1.17
2023-02-26T14:31:05.715Z,0.70
2023-02-26T14:33:44.551Z,0.77
2023-02-26T14:36:26.024Z,1.05
2023-02-26T14:38:54.273Z,1.00
2023-02-26T14:41:36.225Z,0.90
2023-02-26T14:46:35.704Z,0.98
2023-02-26T14:49:02.503Z,0.88
2023-02-26T14:52:04.880Z,1.00
2023-02-26T14:57:25.549Z,1.30
2023-02-26T15:00:13.711Z,1.17
2023-02-26T15:03:19.654Z,1.27
2023-02-26T15:06:00.901Z,1.35
2023-02-26T15:08:44.081Z,1.20
2023-02-26T15:11:58.186Z,1.10
2023-02-26T15:14:31.379Z,1.02
2023-02-26T15:17:19.716Z,1.30
2023-02-26T15:20:09.876Z,1.20
2023-02-26T15:22:49.715Z,1.27
2023-02-26T15:25:29.263Z,1.58
2023-02-26T15:27:56.808Z,1.25
2023-02-26T15:30:24.506Z,0.75
2023-02-26T15:32:58.196Z,1.63
2023-02-26T15:35:28.674Z,1.17
2023-02-26T15:37:59.350Z,1.10
2023-02-26T15:40:31.449Z,0.77
2023-02-26T15:43:02.826Z,1.10
2023-02-26T15:45:40.168Z,1.13
2023-02-26T15:48:21.902Z,1.02
2023-02-26T15:50:57.740Z,0.88
2023-02-26T15:53:30.765Z,0.82
2023-02-26T15:55:58.931Z,0.82
2023-02-26T15:58:43.219Z,0.73
2023-02-26T16:01:17.300Z,1.10
2023-02-26T16:03:43.860Z,1.20
2023-02-26T16:06:13.640Z,1.13
2023-02-26T16:08:40.742Z,1.15
2023-02-26T16:11:07.816Z,1.02
2023-02-26T16:13:42.522Z,0.98
2023-02-26T16:16:20.949Z,1.00
2023-02-26T16:18:48.216Z,1.10
2023-02-26T16:21:30.987Z,1.10
2023-02-26T16:23:59.165Z,0.90
2023-02-26T16:26:39.108Z,0.70
2023-02-26T16:29:18.345Z,0.98
2023-02-26T16:31:54.190Z,1.08
2023-02-26T16:34:37.295Z,1.50
2023-02-26T16:37:29.685Z,1.58
2023-02-26T16:43:02.018Z,1.00
2023-02-26T16:45:37.436Z,1.30
2023-02-26T16:48:10.053Z,1.30
2023-02-26T16:50:37.213Z,1.08
2023-02-26T16:53:21.054Z,1.20
2023-02-26T16:55:52.766Z,1.17
2023-02-26T16:58:21.986Z,1.40
2023-02-26T17:00:58.351Z,1.45
2023-02-26T17:03:26.557Z,1.42
2023-02-26T17:06:11.711Z,1.98
2023-02-26T17:08:50.421Z,1.65
2023-02-26T17:11:26.190Z,1.75
2023-02-26T17:14:24.410Z,1.48
2023-02-26T17:16:51.621Z,1.65
2023-02-26T17:19:18.495Z,1.83
2023-02-26T17:21:48.643Z,1.90
2023-02-26T17:24:26.913Z,2.55
2023-02-26T17:26:55.246Z,2.47
2023-02-26T17:29:34.317Z,2.72
2023-02-26T17:32:00.955Z,2.40
2023-02-26T17:34:27.551Z,2.10
2023-02-26T17:36:55.861Z,2.03
2023-02-26T17:39:22.365Z,1.88
2023-02-26T17:41:49.152Z,1.58
2023-02-26T17:44:15.691Z,1.10
2023-02-26T17:46:42.180Z,1.25
2023-02-26T17:49:11.092Z,1.48
2023-02-26T17:51:37.632Z,1.60
2023-02-26T17:54:07.419Z,1.70
2023-02-26T17:56:34.983Z,1.60
2023-02-26T17:59:01.958Z,1.95
2023-02-26T18:01:29.001Z,2.03
2023-02-26T18:03:57.007Z,1.88
2023-02-26T18:06:25.073Z,2.20
2023-02-26T18:08:52.332Z,1.73
2023-02-26T18:11:20.385Z,1.80
2023-02-26T18:13:47.410Z,1.67
2023-02-26T18:16:20.309Z,1.50
2023-02-26T18:18:47.161Z,1.95
2023-02-26T18:21:14.787Z,2.40
2023-02-26T18:23:41.219Z,2.15
2023-02-26T18:26:07.775Z,2.40
2023-02-26T18:28:34.366Z,2.45
2023-02-26T18:31:02.108Z,2.80
2023-02-26T18:33:28.639Z,2.95
2023-02-26T18:35:59.440Z,2.97
2023-02-26T18:38:28.185Z,3.38
2023-02-26T18:40:55.345Z,3.45
2023-02-26T18:43:22.159Z,3.60
2023-02-26T18:45:50.441Z,3.92
2023-02-26T18:48:19.500Z,3.28
2023-02-26T18:50:46.940Z,2.80
2023-02-26T18:53:23.417Z,2.90
2023-02-26T18:55:52.275Z,3.03
2023-02-26T18:58:20.017Z,3.08
2023-02-26T19:00:47.021Z,3.20
2023-02-26T19:03:13.742Z,3.53
2023-02-26T19:05:40.233Z,2.97
2023-02-26T19:08:07.436Z,3.13
2023-02-26T19:10:34.579Z,3.42
2023-02-26T19:13:01.659Z,3.00
2023-02-26T19:15:28.192Z,3.67
2023-02-26T19:17:54.845Z,3.55
2023-02-26T19:20:21.403Z,2.90
2023-02-26T19:22:48.622Z,3.58
2023-02-26T19:25:16.661Z,3.95
2023-02-26T19:27:46.750Z,3.25
2023-02-26T19:30:13.356Z,2.88
2023-02-26T19:32:40.001Z,2.63
2023-02-26T19:35:07.875Z,2.60
2023-02-26T19:37:34.893Z,1.67
2023-02-26T19:40:01.458Z,1.60
2023-02-26T19:42:28.481Z,1.50
2023-02-26T19:44:55.000Z,1.50
2023-02-26T19:47:21.444Z,1.40
2023-02-26T19:49:47.961Z,1.70
2023-02-26T19:52:14.466Z,1.50
2023-02-26T19:54:40.944Z,1.50
2023-02-26T19:57:10.274Z,1.63
2023-02-26T19:59:36.822Z,1.60
2023-02-26T20:02:04.800Z,2.00
2023-02-26T20:04:31.469Z,1.60
2023-02-26T20:06:58.089Z,1.52
2023-02-26T20:09:24.658Z,1.60
2023-02-26T20:11:51.173Z,1.80
2023-02-26T20:14:18.408Z,2.28
2023-02-26T20:16:44.955Z,2.13
2023-02-26T20:19:11.585Z,2.00
2023-02-26T20:21:38.205Z,2.22
2023-02-26T20:24:08.015Z,2.17
2023-02-26T20:26:34.588Z,2.50
2023-02-26T20:29:01.071Z,2.40
2023-02-26T20:31:27.846Z,2.13
2023-02-26T20:33:55.556Z,2.83
2023-02-26T20:36:22.510Z,3.00
2023-02-26T20:38:49.165Z,3.85
2023-02-26T20:41:15.656Z,3.80
2023-02-26T20:43:42.201Z,3.55
2023-02-26T20:46:08.756Z,3.80
2023-02-26T20:48:40.301Z,3.85
2023-02-26T20:51:07.452Z,3.88
2023-02-26T20:53:34.540Z,3.70
2023-02-26T20:56:03.868Z,3.83
2023-02-26T20:58:30.382Z,3.53
2023-02-26T21:00:58.116Z,4.00
2023-02-26T21:03:25.553Z,3.55
2023-02-26T21:05:55.177Z,3.50
2023-02-26T21:08:22.481Z,3.30
2023-02-26T21:10:52.421Z,3.92
2023-02-26T21:13:22.686Z,3.92
2023-02-26T21:15:50.297Z,3.63
2023-02-26T21:18:16.758Z,3.53
2023-02-26T21:20:46.211Z,3.92
2023-02-26T21:23:12.690Z,3.58
2023-02-26T21:25:40.059Z,3.78
2023-02-26T21:28:06.567Z,3.67
2023-02-26T21:30:33.057Z,4.18
2023-02-26T21:32:59.512Z,4.00
2023-02-26T21:35:25.977Z,4.00
2023-02-26T21:37:52.604Z,4.88
2023-02-26T21:40:19.346Z,5.82
2023-02-26T21:42:45.890Z,6.53
2023-02-26T21:45:12.967Z,6.47
2023-02-26T21:47:39.667Z,6.53
2023-02-26T21:50:07.148Z,6.95
2023-02-26T21:52:33.825Z,7.93
2023-02-26T21:55:00.353Z,9.30
2023-02-26T21:57:27.351Z,11.15
2023-02-26T21:59:53.888Z,12.70
2023-02-26T22:02:20.480Z,12.50
2023-02-26T22:04:47.070Z,15.05
2023-02-26T22:07:13.597Z,14.48
2023-02-26T22:09:46.145Z,15.18
2023-02-26T22:12:13.459Z,14.15
2023-02-26T22:14:39.939Z,14.05
2023-02-26T22:17:06.724Z,11.98
2023-02-26T22:19:33.314Z,11.63
2023-02-26T22:21:59.986Z,12.73
2023-02-26T22:24:29.639Z,13.65
2023-02-26T22:26:56.096Z,12.90
2023-02-26T22:29:23.061Z,12.88
2023-02-26T22:31:49.646Z,11.93
2023-02-26T22:34:17.121Z,10.25
2023-02-26T22:36:43.590Z,9.82
2023-02-26T22:39:16.302Z,9.35
2023-02-26T22:41:42.787Z,8.95
2023-02-26T22:44:11.016Z,10.30
2023-02-26T22:46:37.852Z,9.63
2023-02-26T22:49:04.632Z,9.60
2023-02-26T22:51:36.128Z,9.20
2023-02-26T22:54:05.890Z,10.88
2023-02-26T22:56:32.445Z,9.80
2023-02-26T22:58:59.010Z,12.27
2023-02-26T23:01:25.948Z,11.95
2023-02-26T23:03:56.151Z,11.38
2023-02-26T23:06:22.794Z,12.02
2023-02-26T23:08:54.061Z,11.00
2023-02-26T23:11:23.596Z,11.23
2023-02-26T23:13:50.049Z,11.48
2023-02-26T23:16:19.722Z,11.02
2023-02-26T23:18:48.046Z,10.65
2023-02-26T23:21:17.036Z,10.55
2023-02-26T23:23:44.057Z,9.85
2023-02-26T23:26:11.642Z,9.63
2023-02-26T23:28:38.308Z,9.93
2023-02-26T23:31:12.140Z,10.00
2023-02-26T23:33:38.654Z,9.32
2023-02-26T23:36:10.866Z,8.85
2023-02-26T23:38:40.107Z,9.05
2023-02-26T23:41:07.092Z,8.75
2023-02-26T23:43:36.892Z,8.90
2023-02-26T23:46:03.529Z,8.50
2023-02-26T23:48:30.437Z,8.52
2023-02-26T23:50:56.982Z,8.27
2023-02-26T23:53:23.581Z,7.88
2023-02-26T23:55:52.489Z,7.65
2023-02-26T23:58:21.799Z,6.90
